EPS weather

Public forecast

Using degrees Celsius for public forecast. Weather courtesy of forecast.io.

Closest aviation weather report (METAR) to Samana El Portillo Airport

Closest report is Arroyo Barril Airport, 8.3 nm (15.3 km) SSE. Retrieved 2020/08/08 22:00 UTC (2 hours ago):

MDAB 082200Z 08006KT 9999 FEW020 30/27 Q1017

Closest aviation forecast (TAF) to Samana El Portillo Airport

Forecast is more than 12 hours old.

Closest forecast is Arroyo Barril Airport, 8.3 nm (15.3 km) SSE. Retrieved 2015/05/17 00:35 UTC (5 years ago):

TAF MDAB 172200Z 1800/1900 00000KT 9999 ?TS FEW018CB SCT020 BKN300 BECMG 1909/1912 00000KT